»·PEaware :: SWA678 KLAS-KLAX

SWA678 :: KLAS-KLAX

FLIGHT INFORMATION

Flight Status: Arrived
Operator:
Southwest Airlines
More flights by this operator :: More flights under this callsign
Pilot: Paul A. (20189)
Aircraft: BOEING 737-700
(B737)
More flights by this aircraft type
Origin: KLAS McCarran Intl
United States
Destination: KLAX Los Angeles Intl
United States
More flights between these airports :: More routes between these airports
Route: BOACH8 RIKII SHTNR ANJLL4
File this flight plan on PilotEdge
Remarks:
Altitude:
(Current/Filed)
28,000ft
Speed:
(Current/Filed)
455kts
Departed: 28-Sep-18 07:21 AM
Arrived: 28-Sep-18 08:02 AM
Distance/Time
Traveled:
205nm/0:41
Distance/Time
To Go:
Arrived

Flight Plot

Page will automatically refresh every two minutes.

Flight plan parsing failed; only flown route is shown


Map Options




Map Legend


Flown Route
Filed Route
Departure Airport
Arrival Airport
Navaid (VOR, NDB)
Fix

Horizontal Profiles

Position Reports

Time Latitude Longitude Heading Altitude Ground
Speed
28-Sep-18 07:05 36.082327 -115.152601 348 2123ft 0kts
28-Sep-18 07:06 36.082327 -115.152601 348 2123ft 0kts
28-Sep-18 07:07 36.082327 -115.152601 348 2123ft 0kts
28-Sep-18 07:08 36.082327 -115.152601 348 2123ft 0kts
28-Sep-18 07:09 36.082327 -115.152601 348 2123ft 0kts
28-Sep-18 07:10 36.082327 -115.152601 348 2123ft 0kts
28-Sep-18 07:11 36.081928 -115.152498 348 2123ft 2kts
28-Sep-18 07:12 36.081729 -115.152448 348 2123ft 0kts
28-Sep-18 07:13 36.081729 -115.152448 348 2123ft 0kts
28-Sep-18 07:14 36.081729 -115.152448 348 2123ft 0kts
28-Sep-18 07:15 36.081729 -115.152448 348 2123ft 0kts
28-Sep-18 07:16 36.080195 -115.151934 175 2123ft 12kts
28-Sep-18 07:17 36.078551 -115.148003 92 2122ft 6kts
28-Sep-18 07:18 36.078277 -115.143151 91 2122ft 9kts
28-Sep-18 07:19 36.077491 -115.137717 89 2123ft 25kts
28-Sep-18 07:20 36.077567 -115.131501 90 2122ft 9kts
28-Sep-18 07:21 36.077517 -115.124780 90 2123ft 18kts
28-Sep-18 07:22 36.077118 -115.121385 158 2123ft 0kts
28-Sep-18 07:23 36.076306 -115.127330 270 2123ft 92kts
28-Sep-18 07:24 36.076300 -115.179829 269 4231ft 171kts
28-Sep-18 07:25 36.067700 -115.254847 231 6007ft 272kts
28-Sep-18 07:26 35.995923 -115.288240 200 8222ft 283kts
28-Sep-18 07:27 35.916315 -115.308405 185 11167ft 310kts
28-Sep-18 07:28 35.820491 -115.312019 174 12965ft 368kts
28-Sep-18 07:29 35.716292 -115.299072 175 15847ft 384kts
28-Sep-18 07:30 35.607186 -115.297115 183 18500ft 399kts
28-Sep-18 07:31 35.495822 -115.313619 203 20864ft 411kts
28-Sep-18 07:32 35.394260 -115.382434 212 22975ft 423kts
28-Sep-18 07:33 35.291836 -115.457089 212 24799ft 435kts
28-Sep-18 07:34 35.186172 -115.533473 212 26419ft 447kts
28-Sep-18 07:35 35.086555 -115.625769 227 27875ft 452kts
28-Sep-18 07:36 35.000122 -115.736559 227 27942ft 450kts
28-Sep-18 07:37 34.913805 -115.847142 227 27952ft 450kts
28-Sep-18 07:38 34.826945 -115.957281 227 27957ft 450kts
28-Sep-18 07:39 34.740548 -116.066837 227 27960ft 449kts
28-Sep-18 07:40 34.654176 -116.176536 227 27967ft 449kts
28-Sep-18 07:41 34.567848 -116.286504 227 27960ft 449kts
28-Sep-18 07:42 34.481181 -116.395986 227 27962ft 449kts
28-Sep-18 07:43 34.402726 -116.512227 241 27959ft 446kts
28-Sep-18 07:44 34.347081 -116.646371 244 27885ft 444kts
28-Sep-18 07:45 34.295756 -116.773667 244 25763ft 407kts
28-Sep-18 07:46 34.247311 -116.893609 244 23412ft 380kts
28-Sep-18 07:47 34.202994 -117.011043 251 21686ft 384kts
28-Sep-18 07:48 34.170841 -117.131889 251 19668ft 371kts
28-Sep-18 07:49 34.138929 -117.248557 250 17611ft 360kts
28-Sep-18 07:50 34.107577 -117.361981 250 15506ft 352kts
28-Sep-18 07:51 34.079282 -117.474104 252 13427ft 344kts
28-Sep-18 07:52 34.059505 -117.584959 259 11430ft 335kts
28-Sep-18 07:53 34.044532 -117.692494 259 10090ft 305kts
28-Sep-18 07:54 34.033342 -117.786148 259 8786ft 288kts
28-Sep-18 07:55 34.022217 -117.880468 257 7197ft 280kts
28-Sep-18 07:56 34.008410 -117.966603 253 5760ft 264kts
28-Sep-18 07:57 33.991783 -118.045467 253 4441ft 226kts
28-Sep-18 07:58 33.981419 -118.117682 261 3921ft 226kts
28-Sep-18 07:59 33.973973 -118.189041 262 3150ft 215kts
28-Sep-18 08:00 33.966899 -118.258054 263 2352ft 185kts
28-Sep-18 08:01 33.961071 -118.314972 262 1549ft 157kts
28-Sep-18 08:02 33.956075 -118.363702 263 766ft 140kts
28-Sep-18 08:03 33.951374 -118.409440 261 134ft 119kts
28-Sep-18 08:04 33.948612 -118.415780 130 134ft 17kts
28-Sep-18 08:05 33.948188 -118.414924 109 134ft 3kts
28-Sep-18 08:06 33.948141 -118.414760 108 134ft 2kts
28-Sep-18 08:07 33.947241 -118.411513 83 134ft 19kts
28-Sep-18 08:08 33.948021 -118.403933 82 134ft 25kts
28-Sep-18 08:09 33.948033 -118.401210 178 134ft 0kts
28-Sep-18 08:10 33.948033 -118.401210 178 134ft 0kts

Navigation Log

Ident Type
Flight plan parsing failed, navigation log unavailable